Kingshill, Virgin Islands
Current Conditions -  °F | °C
As of 1:53 PM on Sunday 23 Nov 2014 (Local Time) from TJNR Reporting Station
Few Clouds Few Clouds  
Wind Chill: 86°   Ceiling: Unl
Heat Index: 91°   Visibility: 10mi
Dew Point: 71°   Wind: 16mph
Humidity: 61%   Direction: 120°ESE
Pressure: 30.02"   Gusts: NA
Location:  17.72°N, 64.78°W
Report Text: TJNR 231753Z AUTO 12014KT 10SM FEW037 30/22 A3002 RMK AO2 SLP165 T03000217 10306 20283 58022 $
Loading
Personal Weather Stations






























Interactive Weather Map New forecast layout! Learn more

10-Day Weather Forecast

Advertisements
Track Severe Weather on mobile